Aérodrome :







RETROUVEZ-NOUS SUR...

 
LOGIN :

S'inscrire | Disclaimer

   EN    FR    IT 

 









Légende :    VFR   VFR Marginal   IFR   IFR Intensif   IFR Très Intensif
Visi : 
Plafond : 
>= 8 km
>= 3000ft
5 à 8 km
1000 à 3000 ft
1500m à 5 km
500 à 1000 ft
800 à 1500m
200 à 500 ft
< 800m
< 200 ft
Symboles :   Orages  Brouillard  Fortes neiges  Fortes précipitations  Vent > 20 kt






- Altitude de l'aérodrome : 1663 ft
- Code IATA : SLK


KSLK - Adirondack Regional

DERNIER METAR :
  • 111951Z AUTO 05013KT 1 1/4SM -SN BKN025 BKN034 OVC043 M06/M08 A3006 RMK AO2 SLP203 P0000 T10561083

METARs EXPIRÉS :
  • 111857Z AUTO 06008KT 1SM -SN BR FEW007 OVC017 M05/M07 A3007 RMK AO2 P0000 T10501072
  • 111841Z AUTO 05010KT 3/4SM -SN BR VV018 M05/M07 A3008 RMK AO2 P0001 T10501072
  • 111803Z AUTO 06009KT 1 1/4SM -SN BR SCT009 BKN024 OVC034 M04/M07 A3009 RMK AO2 P0000 T10441067
  • 111751Z AUTO 07007KT 1 1/4SM -SN BR BKN012 BKN018 OVC022 M04/M07 A3008 RMK AO2 SLP211 P0001 60001 T10441067 11033 21044 56010
  • 111702Z AUTO 04007KT 1 1/2SM -SN OVC014 M03/M06 A3009 RMK AO2 P0000 T10331061

TAF KSLK
Valide du 11 à 19h jusqu'au 12 à 18h UTC


111856Z 1119/1218 06009KT 3/4SM -SN BR OVC015
FM112200 06006KT 1/2SM SN OVC020
FM121300 32007KT 3SM -SN BR OVC014
FM121600 30009KT P6SM VCSH BKN020



MET'MAP, la Météo Aéronautique d'un coup d'oeil ! - Copyright ORBIFLY Décembre 2007 - Disclaimer

ORBIFLY MET'MAP TEAM :

Programmation & Développement : Alexandra Zaïnal
Conception & Développement : Baudouin d'Aumeries
Co-Programmation & Développement : Marc-Olivier Méhu
Soutien technique & logistique : Manuel Goepfert

Contact : metmap@orbifly.com




SOURCES & CREDITS :

   NOAA